Ripon, United Kingdom
Current Conditions -  °F | °C
As of 12:50 PM on Wednesday 22 Oct 2014 (Local Time) from EGXD Reporting Station
Light Rain Light Rain  
Wind Chill: 52°   Ceiling: 6000
Heat Index: 52°   Visibility: 6mi
Dew Point: 46°   Wind: 14mph
Humidity: 82%   Direction: 270°W
Pressure: 30.15"   Gusts: NA
Location:  54.14°N, 1.52°W
Report Text: EGXD 221150Z 27012KT 9000 -RA SCT025 BKN060 OVC100 11/08 Q1021 BLU TEMPO 7000 RA BKN022 WHT
Loading
Personal Weather Stations






























Interactive Weather Map
Tropical Storm Tracking
New forecast layout! Learn more

10-Day Weather Forecast

Advertisements
Track Severe Weather on mobile